Strona główna
METAR-TAF:

METAR-TAF

Lotnisko :

New Castle, Pensylwania, Stany Zjednoczone

Szerokość geograficzna: 41-01-31N, Długość geograficzna: 080-24-48W, wysokość: 326 m

Aktualna obserwacja pogody

Raport powstał 20 minut temu, godzina 01:56 UTC
Wiatr 3 kt od południowo-południowy zachód
Temperatura 27°C
Wilgotność 84%
Ciśnienie 1015 hPa
Widzialność: 16.1 km
Przerywane chmury na wysokości 7000 ft

METAR: KUCP 210156Z AUTO 21003KT 10SM BKN070 27/24 A2996 RMK AO2 SLP151 T02670244 PNO $

czas: 22:16 (02:16 UTC)


TAF: brakujący

Obserwacja i prognoza pogody dla ponad 4000 lotnisk (raport METAR i TAF).

Dostępne stacje oznaczono żółtymi i czerwonymi punktami na mapie.

Najedź kursorem aby zobaczyć nazwę stacji.

Kliknij aby zobaczyć obserwacje i prognozy pogody.

Aby zmienić mapę: kliknij na zielony przycisk z czarnym krzyżykiem, aby powiększyć; na zielony przycisk z myślnikiem, aby pomniejszyć; na zielone strzałki, aby przejść do map sąsiednich.


METAR-TAF: